Rogers Spring, Nevada Weather observations

Data are for 10 minute period ending at time listed.
 Day   Time   Solar   Ave.   Ave.  Ave.  Vector  Max.   Baro.   Total    
  of    of     Rad.   Air    Rel.  Wind   Wind   Wind  Press.  Precip.   
Year   Day            Temp.  Hum.  Speed  Dir.   Gust                    
2015   (PST)  Kw/m2    F      %     mph   deg.    mph    mb.     in.     
-------------------------------------------------------------------------
 184   14:50   0.73  106.4    10    6.0   164    14.0   928.6    0.00 
 184   15:00   0.50  105.4    10    5.6   165    13.7   928.5    0.00 
 184   15:10   0.68  106.6     9    4.4   190    11.5   928.4    0.00 
 184   15:20   0.59  106.3     9    5.9   180    14.0   928.3    0.00 
 184   15:30   0.68  106.9     8    6.8   180    12.0   928.2    0.00 
 184   15:40   0.43  106.3     8    6.4   178    12.3   928.2    0.00 
 184   15:50   0.65  106.1     7    6.9   180    13.1   928.0    0.00 
 184   16:00   0.53  106.8     7    6.3   179    12.7   927.9    0.00 
 184   16:10   0.38  105.3     7    7.3   177    12.3   927.8    0.00 
 184   16:20   0.38  104.9     7    6.7   179    12.1   927.7    0.00 
 184   16:30   0.44  105.4     7    7.5   174    14.6   927.6    0.00 
 184   16:40   0.40  104.7     7    5.5   205    10.8   927.5    0.00 
 184   16:50   0.44  105.7     7    6.1   195    11.8   927.4    0.00 
 184   17:00   0.27  105.4     6    5.7   187    11.8   927.4    0.00 
 184   17:10   0.17  101.9     6    5.3   201     9.2   927.3    0.00 
 184   17:20   0.24  103.0     7    5.5   202     9.9   927.3    0.00 
 184   17:30   0.20  102.9     8    5.3   191     9.1   927.2    0.00 
 184   17:40   0.10  101.3     8    4.4   192     8.5   927.1    0.00 
 184   17:50   0.06   99.5     8    2.5   182     4.0   927.1    0.00 
 184   18:00   0.06   97.4     9    2.0   177     3.4   926.9    0.00 
 184   18:10   0.05   95.5    10    2.2   167     4.2   926.8    0.00 
 184   18:20   0.06   94.0    11    2.2   157     3.4   926.8    0.00 
 184   18:30   0.07   94.8    10    3.8   165     7.5   926.6    0.00 
 184   18:40   0.07   97.0     9    3.8   173     8.1   926.6    0.00 
 184   18:50   0.04   96.7     9    4.1   169     7.0   926.7    0.00 
 184   19:00   0.02   95.3    10    3.8   169     7.5   926.7    0.00 
 184   19:10   0.01   94.0    10    4.0   173     6.4   926.7    0.00 
 184   19:20   0.00   93.6    10    4.0   166     9.5   926.7    0.00 
 184   19:30   0.00   91.8    11    4.2   156     6.9   926.8    0.00 
 184   19:40   0.00   91.9    11    4.5   160     7.5   926.8    0.00 
 184   19:50   0.00   92.1    11    4.1   166     7.5   926.8    0.00 
 184   20:00   0.00   91.9    11    4.1   162     7.4   926.9    0.00 
 184   20:10   0.00   91.5    11    3.5   163     5.3   927.0    0.00 
 184   20:20   0.00   91.0    11    3.7   162     5.8   927.1    0.00 
 184   20:30   0.00   90.7    11    3.7   170     6.2   927.1    0.00 
 184   20:40   0.00   90.6    11    3.9   172     6.4   927.2    0.00 
 184   20:50   0.00   90.8    11    4.1   164     6.4   927.4    0.00 
 184   21:00   0.00   91.0    12    4.1   165     7.5   927.5    0.00 
 184   21:10   0.00   90.6    13    3.8   173     7.5   927.5    0.00 
 184   21:20   0.00   90.8    14    4.3   173     8.9   927.6    0.00 
 184   21:30   0.00   91.8    13    5.4   172    10.1   927.7    0.00 
 184   21:40   0.00   91.6    13    4.6   169     9.6   927.7    0.00 
 184   21:50   0.00   91.1    13    4.2   168     9.1   927.7    0.00 
 184   22:00   0.00   90.9    13    4.3   166     8.8   927.6    0.00 
 184   22:10   0.00   90.5    13    3.9   157     6.9   927.6    0.00 
 184   22:20   0.00   89.4    13    3.2   160     5.8   927.6    0.00 
 184   22:30   0.00   89.7    13    4.2   163     9.0   927.6    0.00 
 184   22:40   0.00   90.9    12    5.5   164     9.1   927.5    0.00 
 184   22:50   0.00   91.4    12    5.0   164    10.0   927.5    0.00 
 184   23:00   0.00   91.7    12    5.4   166     9.2   927.5    0.00 
 184   23:10   0.00   91.5    12    4.4   165     7.9   927.5    0.00 
 184   23:20   0.00   91.6    12    4.3   164     7.7   927.5    0.00 
 184   23:30   0.00   91.0    12    3.7   168     6.1   927.4    0.00 
 184   23:40   0.00   90.0    12    3.6   167     6.6   927.4    0.00 
 184   23:50   0.00   89.5    12    3.8   166     6.7   927.4    0.00 
 185    0:00   0.00   88.6    12    3.0   166     5.2   927.4    0.00 
 185    0:10   0.00   88.1    12    3.4   166     6.5   927.4    0.00 
 185    0:20   0.00   87.5    12    3.4   161     5.8   927.6    0.00 
 185    0:30   0.00   86.8    13    3.4   166     6.9   927.6    0.00 
 185    0:40   0.00   88.3    12    4.5   162     9.0   927.6    0.00 
 185    0:50   0.00   89.3    12    5.3   161    10.3   927.5    0.00 
 185    1:00   0.00   89.7    11    5.6   160    10.0   927.4    0.00 
 185    1:10   0.00   90.0    11    4.6   166     7.6   927.4    0.00 
 185    1:20   0.00   89.2    12    4.1   174     8.3   927.4    0.00 
 185    1:30   0.00   89.5    12    5.1   162    10.2   927.4    0.00 
 185    1:40   0.00   90.2    11    5.9   158    11.5   927.3    0.00 
 185    1:50   0.00   90.8    11    6.4   159    11.7   927.4    0.00 
 185    2:00   0.00   90.2    12    5.7   163    10.6   927.4    0.00 
 185    2:10   0.00   89.7    12    5.7   168    11.1   927.4    0.00 
 185    2:20   0.00   89.9    12    5.5   165     9.8   927.5    0.00 
 185    2:30   0.00   89.9    12    4.8   172     8.6   927.6    0.00 
 185    2:40   0.00   89.6    13    3.4   185     7.2   927.6    0.00 
 185    2:50   0.00   87.7    14    2.2   251     5.3   927.6    0.00 
 185    3:00   0.00   82.4    18    0.5   355     1.9   927.7    0.00 
 185    3:10   0.00   81.3    19    1.4   344     3.1   927.8    0.00 
 185    3:20   0.00   82.1    18    2.5    29     5.0   928.1    0.00 
 185    3:30   0.00   83.4    17    1.9    28     3.8   928.2    0.00 
 185    3:40   0.00   84.2    17    0.9   212     2.3   928.3    0.00 
 185    3:50   0.00   83.5    18    2.1   310     6.1   928.4    0.00 
 185    4:00   0.00   83.7    18    1.3   350     3.4   928.5    0.00 
 185    4:10   0.00   82.0    20    2.0   329     5.0   928.7    0.00 
 185    4:20   0.00   81.6    19    3.0   270     5.4   928.8    0.00 
 185    4:30   0.00   83.1    17    1.6   205     5.1   928.9    0.00 
 185    4:40   0.00   82.0    19    1.9   158     2.9   928.9    0.00 
 185    4:50   0.00   80.8    20    2.6   159     4.0   929.0    0.00 
 185    5:00   0.01   80.4    20    3.0   200     6.8   929.2    0.00 
 185    5:10   0.02   79.8    20    2.3   224     5.4   929.4    0.00 
 185    5:20   0.04   77.8    23    1.6   196     2.7   929.6    0.00 
 185    5:30   0.06   77.7    22    2.6   157     4.2   929.6    0.00 
 185    5:40   0.05   78.9    21    3.0   162     5.1   929.7    0.00 
 185    5:50   0.05   79.6    21    2.5   204     5.0   929.7    0.00 
 185    6:00   0.06   78.4    24    1.9   190     5.8   929.7    0.00 
 185    6:10   0.07   82.6    19    3.2   228    13.0   929.6    0.00 
 185    6:20   0.10   88.4    16    6.2   190    12.0   929.6    0.00 
 185    6:30   0.09   89.3    15    5.9   160    12.0   929.7    0.00 
 185    6:40   0.07   88.6    15    5.1   152     9.7   929.7    0.00 
 185    6:50   0.07   88.4    14    3.6   150     9.8   930.0    0.00 
 185    7:00   0.11   87.4    16    3.6    95     7.1   930.2    0.00 
 185    7:10   0.13   88.0    16    3.7   102     7.5   930.3    0.00 
 185    7:20   0.11   88.2    17    2.6   124     6.6   930.4    0.00 
 185    7:30   0.09   88.3    17    4.4   137     8.5   930.5    0.00 
 185    7:40   0.08   88.3    18    5.1   146    10.6   930.7    0.00 
 185    7:50   0.07   88.5    19    7.4   154    16.9   930.8    0.00 
 185    8:00   0.05   87.8    21    9.8   170    18.7   930.9    0.00 
 185    8:10   0.04   86.5    24    8.7   166    16.1   931.0    0.00 
 185    8:20   0.05   86.0    26    8.9   172    15.5   931.0    0.00 
 185    8:30   0.06   84.5    29    6.8   170    14.1   931.1    0.00 
 185    8:40   0.16   84.9    29    6.5   166    14.2   931.3    0.00 
 185    8:50   0.28   86.5    28    6.4   153    12.3   931.3    0.00 
 185    9:00   0.22   87.1    28    4.8   210     9.4   931.1    0.00 
 185    9:10   0.21   87.5    27    5.2   206    13.9   931.0    0.00 
 185    9:20   0.24   88.2    27    3.6   227     8.6   931.0    0.00 
 185    9:30   0.34   89.4    25    4.1   249     8.8   930.9    0.00 
 185    9:40   0.53   92.2    21    4.5   234     8.8   930.8    0.00 
 185    9:50   0.42   93.0    20    4.3   268     8.4   930.8    0.00 
 185   10:00   0.34   92.2    19    6.9   279    11.2   931.0    0.00 
 185   10:10   0.41   92.5    19    4.6   273     7.7   931.0    0.00 
 185   10:20   0.61   94.4    17    2.9   269     6.6   930.9    0.00 
 185   10:30   0.48   94.7    17    5.3   295     9.1   931.0    0.00 
 185   10:40   1.09   96.8    16    5.2   311     9.2   931.0    0.00 
 185   10:50   0.86   97.1    15    4.8   332    10.6   931.2    0.00 
 185   11:00   0.92   97.1    15    5.4     3    10.0   931.3    0.00 
 185   11:10   0.59   95.8    16    4.6   320     9.1   931.4    0.00 
 185   11:20   1.05   97.5    15    4.7    11    11.0   931.3    0.00 
 185   11:30   0.98   98.5    15    4.6    63     9.7   931.3    0.00 
 185   11:40   0.99   98.0    16    6.6    61    11.4   931.3    0.00 
 185   11:50   0.98   98.2    15    5.6    77    13.0   931.2    0.00 
 185   12:00   0.97   98.2    15    7.6    61    13.2   931.2    0.00 
 185   12:10   0.98   97.9    15    6.8    55    12.9   931.2    0.00 
 185   12:20   0.99   97.9    14    2.9   330     6.9   931.1    0.00 
 185   12:30   0.90   98.9    13    1.8   166     4.7   931.0    0.00 
 185   12:40   0.52   97.6    14    3.3   289     7.3   930.8    0.00 
 185   12:50   0.99   98.9    14    4.8   299     9.1   930.7    0.00 
 185   13:00   1.01   99.8    14    3.8   337     8.4   930.7    0.00 
 185   13:10   0.98   99.5    14    4.3    35     8.6   930.4    0.00 
 185   13:20   0.97  100.2    14    5.5    67    11.5   930.4    0.00 
 185   13:30   0.91  100.1    14    2.8    23     5.5   930.3    0.00 
 185   13:40   0.51   98.9    14    3.4    28     7.3   930.1    0.00 
 185   13:50   0.73   98.1    14    3.4   108     7.3   930.0    0.00 
 185   14:00   0.70   99.5    14    3.8    22     7.3   929.8    0.00 
 185   14:10   0.82   99.8    13    2.1    31     5.3   929.7    0.00 
 185   14:20   0.80  100.0    14    3.3    38    10.7   929.5    0.00 
 185   14:30   0.78  100.7    14    4.4    31     9.1   929.4    0.00 
 185   14:40   0.76  100.4    13    4.9   344     9.8   929.3    0.00 

Return to Rogers Spring graphs page.


Western Regional Climate Center,wrcc@dri.edu